Terminal Aerodrome Forecast
Issued by NWS

Home | Current Version | Previous Version | Text Only | Print | Product List | Glossary On
Versions: 1 2 3 4 5 6 7 8 9 10 11 12 13 14 15 16 17 18 19 20 21
000
FTUS46 KSEW 251700
TAFBFI
TAF
KBFI 251724Z 2518/2618 19006KT P6SM SCT013 BKN020 OVC030
     FM252200 22006KT P6SM SCT019 BKN035 OVC050
     FM260200 16003KT P6SM SCT030 BKN050
     FM260600 11004KT P6SM OVC035
     FM261200 10003KT P6SM OVC015=

USA.gov is the U.S. government's official web portal to all federal, state and local government web resources and services.